Time;durP1;ratioP1;P1;durP2;ratioP2;P2;SDS_P1;SDS_P2;PMS_P1;PMS_P2;Temp;Humidity;BMP_temperature;BMP_pressure;BME280_temperature;BME280_humidity;BME280_pressure;Samples;Min_cycle;Max_cycle;Signal;HPM_P1;HPM_P2
2022/06/30 00:01:53;;;;;;;6.33;5.83;;;27.10;74.50;;;;;;6192888;23;20439;-92
2022/06/30 00:04:19;;;;;;;6.30;5.80;;;27.00;74.40;;;;;;6192396;23;20477;-94
2022/06/30 00:06:45;;;;;;;5.50;5.10;;;27.00;74.50;;;;;;6192671;23;20704;-94
2022/06/30 00:09:11;;;;;;;5.90;5.40;;;27.00;74.60;;;;;;6167681;23;20426;-94
2022/06/30 00:11:37;;;;;;;6.20;5.70;;;27.00;74.60;;;;;;6192682;23;20449;-95
2022/06/30 00:14:03;;;;;;;5.73;5.30;;;27.00;74.60;;;;;;6218427;23;20384;-93
2022/06/30 00:16:30;;;;;;;7.37;6.67;;;27.00;74.70;;;;;;6168289;23;20441;-94
2022/06/30 00:18:56;;;;;;;7.10;6.50;;;26.90;74.70;;;;;;6168327;23;20690;-92
2022/06/30 00:21:22;;;;;;;5.90;5.50;;;26.90;74.70;;;;;;6167938;23;20418;-94
2022/06/30 00:23:48;;;;;;;6.13;5.70;;;26.90;74.70;;;;;;6167744;23;20441;-94
2022/06/30 00:26:14;;;;;;;6.40;5.70;;;26.90;74.80;;;;;;6167889;23;20726;-94
2022/06/30 00:28:40;;;;;;;6.50;6.00;;;26.80;74.80;;;;;;6192563;23;20505;-94
2022/06/30 00:31:06;;;;;;;7.00;6.40;;;26.80;74.80;;;;;;6217663;23;20423;-93
2022/06/30 00:33:32;;;;;;;6.43;5.93;;;26.80;74.90;;;;;;6192797;23;20453;-94
2022/06/30 00:35:58;;;;;;;6.97;6.37;;;26.80;74.90;;;;;;6192799;23;20388;-93
2022/06/30 00:38:24;;;;;;;6.43;5.93;;;26.80;75.00;;;;;;6167968;23;20486;-94
2022/06/30 00:40:50;;;;;;;6.40;5.80;;;26.70;74.90;;;;;;6192783;23;20399;-94
2022/06/30 00:43:16;;;;;;;6.67;6.07;;;26.70;75.00;;;;;;6192661;23;20422;-95
2022/06/30 00:45:47;;;;;;;7.23;6.73;;;26.70;75.00;;;;;;6192640;23;20403;-93
2022/06/30 00:48:15;;;;;;;6.30;5.90;;;26.70;75.00;;;;;;6217483;23;20391;-94
2022/06/30 00:50:41;;;;;;;6.47;5.97;;;26.70;75.00;;;;;;6192358;23;20445;-93
2022/06/30 00:53:08;;;;;;;6.33;5.83;;;26.70;75.10;;;;;;6193025;23;20383;-94
2022/06/30 00:55:35;;;;;;;6.70;6.10;;;26.60;75.10;;;;;;6192746;23;20383;-93
2022/06/30 00:58:09;;;;;;;6.37;5.77;;;26.60;75.10;;;;;;6192412;23;20425;-96
2022/06/30 01:00:38;;;;;;;6.67;6.17;;;26.60;75.20;;;;;;6167911;23;20423;-96
2022/06/30 01:03:07;;;;;;;7.70;7.10;;;26.60;75.20;;;;;;6192295;23;20509;-94
2022/06/30 01:05:33;;;;;;;7.00;6.50;;;26.60;75.30;;;;;;6186377;23;20446;-96
2022/06/30 01:08:01;;;;;;;7.43;6.03;;;26.50;75.20;;;;;;6161765;23;20998;-94
2022/06/30 01:13:12;;;;;;;7.30;6.70;;;26.50;75.30;;;;;;6161720;23;20383;-95
2022/06/30 01:15:38;;;;;;;6.80;6.20;;;26.50;75.30;;;;;;6113530;23;20419;-94
2022/06/30 01:18:04;;;;;;;7.50;6.90;;;26.40;75.30;;;;;;6114677;23;20388;-96
2022/06/30 01:20:33;;;;;;;7.87;7.17;;;26.40;75.30;;;;;;6163629;23;20380;-95
2022/06/30 01:23:02;;;;;;;7.70;7.10;;;26.40;75.40;;;;;;6114298;23;20436;-94
2022/06/30 01:25:28;;;;;;;6.90;6.40;;;26.40;75.40;;;;;;6163464;23;20435;-94
2022/06/30 01:27:54;;;;;;;7.10;6.60;;;26.40;75.40;;;;;;6164369;23;20500;-96
2022/06/30 01:30:22;;;;;;;8.20;6.20;;;26.40;75.50;;;;;;6163423;23;20399;-95
2022/06/30 01:32:48;;;;;;;7.10;6.50;;;26.30;75.50;;;;;;6188084;23;20727;-95
2022/06/30 01:35:14;;;;;;;7.03;6.43;;;26.30;75.50;;;;;;6163392;23;20451;-96
2022/06/30 01:38:06;;;;;;;8.03;7.27;;;26.30;75.50;;;;;;6218653;23;20892;-96
2022/06/30 01:40:35;;;;;;;8.27;7.57;;;26.30;75.60;;;;;;6188944;23;20919;-96
2022/06/30 01:43:06;;;;;;;7.53;6.90;;;26.20;75.50;;;;;;6219339;23;20719;-96
2022/06/30 01:45:33;;;;;;;7.23;6.53;;;26.20;75.60;;;;;;6169556;23;20364;-94
2022/06/30 01:47:59;;;;;;;6.80;6.20;;;26.20;75.60;;;;;;6144962;23;20468;-95
2022/06/30 01:50:28;;;;;;;7.50;6.90;;;26.20;75.70;;;;;;6193948;23;20391;-96
2022/06/30 01:52:54;;;;;;;6.63;6.13;;;26.20;75.70;;;;;;6219174;23;20415;-96
2022/06/30 01:55:20;;;;;;;7.23;6.63;;;26.10;75.70;;;;;;6194095;23;20697;-95
2022/06/30 01:57:46;;;;;;;7.20;6.60;;;26.10;75.70;;;;;;6194034;23;20410;-95
2022/06/30 02:00:15;;;;;;;7.57;6.87;;;26.10;75.80;;;;;;6169280;23;20694;-95
2022/06/30 02:02:42;;;;;;;7.70;7.00;;;26.10;75.80;;;;;;6194015;23;20429;-96
2022/06/30 02:05:09;;;;;;;7.37;6.67;;;26.10;75.80;;;;;;6194292;23;20703;-94
2022/06/30 02:07:36;;;;;;;7.60;7.00;;;26.10;75.90;;;;;;6194279;23;20683;-94
2022/06/30 02:10:04;;;;;;;7.60;7.00;;;26.10;76.00;;;;;;6194048;23;20426;-95
2022/06/30 02:12:45;;;;;;;7.60;6.90;;;26.00;76.00;;;;;;6193932;23;20386;-96
2022/06/30 02:15:14;;;;;;;7.20;6.60;;;26.00;76.00;;;;;;6193960;23;20471;-95
2022/06/30 02:17:40;;;;;;;6.97;6.37;;;26.00;76.00;;;;;;6220091;23;20390;-94
2022/06/30 02:20:08;;;;;;;8.00;7.20;;;26.00;76.10;;;;;;6218792;23;20387;-95
2022/06/30 02:22:38;;;;;;;7.77;6.97;;;26.00;76.20;;;;;;6193692;23;20798;-96
2022/06/30 02:25:06;;;;;;;7.97;7.17;;;25.90;76.10;;;;;;6194020;23;20387;-96
2022/06/30 02:27:33;;;;;;;7.77;7.17;;;25.90;76.20;;;;;;6168111;23;20391;-95
2022/06/30 02:29:59;;;;;;;7.83;6.90;;;25.90;76.20;;;;;;6144435;23;20398;-95
2022/06/30 02:32:25;;;;;;;7.73;7.03;;;25.90;76.30;;;;;;6194076;23;20406;-94
2022/06/30 02:34:52;;;;;;;7.20;6.70;;;25.90;76.40;;;;;;6193657;23;20422;-95
2022/06/30 02:37:18;;;;;;;7.50;6.90;;;25.90;76.40;;;;;;6193681;23;20394;-96
2022/06/30 02:39:44;;;;;;;7.73;7.13;;;25.90;76.50;;;;;;6193421;23;20408;-96
2022/06/30 02:42:10;;;;;;;8.00;7.40;;;25.80;76.50;;;;;;6193581;23;20516;-95
2022/06/30 02:44:37;;;;;;;7.60;6.93;;;25.80;76.50;;;;;;6193680;23;20753;-96
2022/06/30 02:47:04;;;;;;;7.70;7.07;;;25.80;76.50;;;;;;6168733;23;20411;-96
2022/06/30 02:49:30;;;;;;;7.83;7.03;;;25.80;76.60;;;;;;6193881;23;20391;-96
2022/06/30 02:51:56;;;;;;;7.67;7.07;;;25.70;76.60;;;;;;6193431;23;20386;-96
2022/06/30 02:54:22;;;;;;;8.70;8.00;;;25.70;76.60;;;;;;6193712;23;20526;-95
2022/06/30 02:56:49;;;;;;;8.37;7.63;;;25.70;76.70;;;;;;6193512;23;20466;-95
2022/06/30 02:59:16;;;;;;;8.03;7.33;;;25.70;76.80;;;;;;6193707;23;20422;-95
2022/06/30 03:01:42;;;;;;;8.73;8.03;;;25.70;76.90;;;;;;6193791;23;20695;-95
2022/06/30 03:04:08;;;;;;;7.97;7.37;;;25.70;76.90;;;;;;6219659;23;20460;-94
2022/06/30 03:06:35;;;;;;;8.40;7.60;;;25.70;76.90;;;;;;6193584;23;20459;-95
2022/06/30 03:09:02;;;;;;;8.53;7.73;;;25.60;77.00;;;;;;6218324;23;20391;-95
2022/06/30 03:11:28;;;;;;;9.33;7.83;;;25.60;77.00;;;;;;6168701;23;20842;-94
2022/06/30 03:13:54;;;;;;;8.90;8.10;;;25.60;77.20;;;;;;6193411;23;20395;-94
2022/06/30 03:16:20;;;;;;;8.97;7.90;;;25.60;77.20;;;;;;6193333;23;20476;-95
2022/06/30 03:18:47;;;;;;;9.23;8.10;;;25.60;77.40;;;;;;6193153;23;20387;-96
2022/06/30 03:21:13;;;;;;;8.83;8.03;;;25.60;77.40;;;;;;6193639;23;20710;-94
2022/06/30 03:23:39;;;;;;;8.40;7.70;;;25.50;77.30;;;;;;6193458;23;20441;-96
2022/06/30 03:26:06;;;;;;;9.77;8.87;;;25.50;77.30;;;;;;6192971;23;20428;-96
2022/06/30 03:28:33;;;;;;;8.60;7.90;;;25.50;77.40;;;;;;6219281;23;20462;-95
2022/06/30 03:30:59;;;;;;;8.27;7.43;;;25.50;77.50;;;;;;6193571;23;20840;-94
2022/06/30 03:33:25;;;;;;;8.90;8.20;;;25.50;77.60;;;;;;6193235;23;20399;-95
2022/06/30 03:35:51;;;;;;;9.40;8.60;;;25.50;77.60;;;;;;6193410;23;20399;-96
2022/06/30 03:38:18;;;;;;;8.83;8.13;;;25.40;77.60;;;;;;6192943;23;20437;-96
2022/06/30 03:40:44;;;;;;;8.60;7.90;;;25.40;77.70;;;;;;6168105;23;20410;-95
2022/06/30 03:43:10;;;;;;;9.93;9.03;;;25.40;77.70;;;;;;6193036;23;20646;-96
2022/06/30 03:45:36;;;;;;;8.93;8.17;;;25.40;77.80;;;;;;6218315;23;20372;-94
2022/06/30 03:48:06;;;;;;;9.00;8.30;;;25.40;77.90;;;;;;6193259;23;20414;-96
2022/06/30 03:50:33;;;;;;;9.27;8.37;;;25.40;78.00;;;;;;6168984;23;20398;-95
2022/06/30 03:52:59;;;;;;;9.03;8.30;;;25.40;78.10;;;;;;6192891;23;20418;-95
2022/06/30 03:55:26;;;;;;;8.80;8.10;;;25.40;78.10;;;;;;6193040;23;20405;-95
2022/06/30 03:57:52;;;;;;;9.40;8.60;;;25.30;78.10;;;;;;6168340;23;20422;-94
2022/06/30 04:00:19;;;;;;;9.30;8.50;;;25.30;78.10;;;;;;6168472;23;20379;-95
2022/06/30 04:02:45;;;;;;;9.73;8.93;;;25.30;78.20;;;;;;6167817;23;20959;-95
2022/06/30 04:05:11;;;;;;;9.30;8.60;;;25.30;78.30;;;;;;6168081;23;20390;-95
2022/06/30 04:07:42;;;;;;;10.30;8.77;;;25.30;78.40;;;;;;6192575;23;20749;-96
2022/06/30 04:10:13;;;;;;;9.37;8.57;;;25.20;78.40;;;;;;6193023;23;20422;-94
2022/06/30 04:12:40;;;;;;;10.00;7.73;;;25.20;78.50;;;;;;6193216;23;20368;-95
2022/06/30 04:15:07;;;;;;;9.50;8.80;;;25.20;78.50;;;;;;6192995;23;20387;-94
2022/06/30 04:17:33;;;;;;;9.33;8.50;;;25.20;78.60;;;;;;6168034;23;20408;-95
2022/06/30 04:20:04;;;;;;;9.37;8.50;;;25.20;78.70;;;;;;6192807;23;20419;-95
2022/06/30 04:22:30;;;;;;;9.93;9.13;;;25.20;78.70;;;;;;6168121;23;20449;-94
2022/06/30 04:24:56;;;;;;;9.73;8.97;;;25.20;78.80;;;;;;6217636;23;20466;-95
2022/06/30 04:27:22;;;;;;;10.03;9.23;;;25.20;78.80;;;;;;6167874;23;20395;-95
2022/06/30 04:29:48;;;;;;;9.33;8.53;;;25.20;78.90;;;;;;6218042;23;20387;-95
2022/06/30 04:34:59;;;;;;;9.80;9.10;;;25.20;79.00;;;;;;6193154;23;20407;-95
2022/06/30 04:37:25;;;;;;;10.00;9.00;;;25.10;78.90;;;;;;6217735;23;20437;-96
2022/06/30 04:41:23;;;;;;;9.17;8.47;;;25.10;79.00;;;;;;6192571;23;20421;-94
2022/06/30 04:42:39;;;;;;;8.93;8.13;;;25.10;79.00;;;;;;6217463;23;20427;-95
2022/06/30 04:45:06;;;;;;;9.97;8.93;;;25.10;79.00;;;;;;6192484;23;20383;-94
2022/06/30 04:47:35;;;;;;;10.60;9.60;;;25.00;79.10;;;;;;6192428;23;20371;-94
2022/06/30 04:50:02;;;;;;;9.00;8.30;;;25.10;80.10;;;;;;6192420;23;20391;-95
2022/06/30 04:52:28;;;;;;;9.27;8.43;;;25.00;79.30;;;;;;6167594;23;20416;-95
2022/06/30 04:54:54;;;;;;;10.50;9.50;;;25.00;79.20;;;;;;6167892;23;20450;-93
2022/06/30 04:57:20;;;;;;;10.07;8.60;;;25.00;79.30;;;;;;6192144;23;20395;-92
2022/06/30 04:59:49;;;;;;;8.90;8.00;;;25.00;79.40;;;;;;6192565;23;20405;-92
2022/06/30 05:02:24;;;;;;;10.83;8.60;;;25.00;79.50;;;;;;6191692;23;20430;-93
2022/06/30 05:04:49;;;;;;;10.67;9.67;;;25.00;79.50;;;;;;6192272;23;20422;-94
2022/06/30 05:07:16;;;;;;;9.63;8.73;;;25.00;79.60;;;;;;6167443;23;20164;-93
2022/06/30 05:09:45;;;;;;;9.90;9.10;;;25.00;79.70;;;;;;6192282;23;20478;-94
2022/06/30 05:12:11;;;;;;;9.63;8.80;;;25.00;79.80;;;;;;6167463;23;20393;-92
2022/06/30 05:14:39;;;;;;;9.60;8.70;;;24.90;79.80;;;;;;6192998;23;20702;-93
2022/06/30 05:17:05;;;;;;;10.23;9.20;;;24.90;79.90;;;;;;6217185;23;20402;-93
2022/06/30 05:19:31;;;;;;;10.20;9.30;;;24.90;79.90;;;;;;6192223;23;20391;-93
2022/06/30 05:21:58;;;;;;;10.10;9.30;;;24.90;79.90;;;;;;6192149;23;20407;-94
2022/06/30 05:27:12;;;;;;;10.07;8.20;;;24.90;80.00;;;;;;6192746;23;20379;-94
2022/06/30 05:29:38;;;;;;;9.57;8.67;;;24.90;80.00;;;;;;6167900;23;20391;-95
2022/06/30 05:32:05;;;;;;;9.50;8.50;;;24.90;80.00;;;;;;6192255;23;20394;-95
2022/06/30 05:34:31;;;;;;;8.97;8.23;;;24.90;80.00;;;;;;6167469;23;20425;-96
2022/06/30 05:36:57;;;;;;;8.83;8.13;;;24.90;79.80;;;;;;6167388;23;20399;-95
2022/06/30 05:39:23;;;;;;;9.40;8.50;;;24.90;79.90;;;;;;6167737;23;20460;-92
2022/06/30 05:41:49;;;;;;;10.33;9.33;;;24.90;80.10;;;;;;6192864;23;20394;-94
2022/06/30 05:44:15;;;;;;;9.23;8.40;;;24.90;80.20;;;;;;6218229;23;20439;-95
2022/06/30 05:46:43;;;;;;;9.90;9.07;;;24.90;80.30;;;;;;6192626;23;20406;-93
2022/06/30 05:49:10;;;;;;;9.10;8.37;;;24.90;80.20;;;;;;6192551;23;20419;-96
2022/06/30 05:51:38;;;;;;;9.93;9.00;;;24.80;80.00;;;;;;6192395;23;20744;-94
2022/06/30 05:54:04;;;;;;;8.87;8.27;;;24.90;80.20;;;;;;6192453;23;20380;-95
2022/06/30 05:56:30;;;;;;;10.20;9.30;;;24.80;80.10;;;;;;6143673;23;20391;-95
2022/06/30 05:58:56;;;;;;;10.37;9.50;;;24.80;80.00;;;;;;6191807;23;20520;-94
2022/06/30 06:01:22;;;;;;;9.30;8.50;;;24.80;80.00;;;;;;6217414;23;20387;-94
2022/06/30 06:03:48;;;;;;;10.73;9.73;;;24.90;80.20;;;;;;6220163;23;20426;-93
2022/06/30 06:06:14;;;;;;;9.57;8.80;;;24.80;80.10;;;;;;6220377;23;20483;-95
2022/06/30 06:08:41;;;;;;;11.10;8.93;;;24.80;80.20;;;;;;6194660;23;20689;-93
2022/06/30 06:11:07;;;;;;;10.60;9.60;;;24.80;80.20;;;;;;6196625;23;20391;-92
2022/06/30 06:13:35;;;;;;;10.57;9.63;;;24.80;80.20;;;;;;6196449;23;20715;-92
2022/06/30 06:16:03;;;;;;;9.70;8.80;;;24.80;80.30;;;;;;6221065;23;20397;-92
2022/06/30 06:18:32;;;;;;;10.30;9.40;;;24.80;80.30;;;;;;6195050;23;20482;-92
2022/06/30 06:20:58;;;;;;;10.40;9.40;;;24.80;80.40;;;;;;6168872;23;20401;-92
2022/06/30 06:23:24;;;;;;;9.83;9.03;;;24.80;80.40;;;;;;6167884;23;20466;-95
2022/06/30 06:25:51;;;;;;;10.10;9.20;;;24.80;80.60;;;;;;6219553;23;20415;-94
2022/06/30 06:31:05;;;;;;;10.40;9.50;;;24.80;80.60;;;;;;6220129;23;20367;-94
2022/06/30 06:33:33;;;;;;;10.97;10.07;;;24.80;80.70;;;;;;6193773;23;20679;-93
2022/06/30 06:36:02;;;;;;;10.10;9.37;;;24.80;80.70;;;;;;6218197;23;20407;-94
2022/06/30 06:38:30;;;;;;;9.80;8.90;;;24.80;80.60;;;;;;6193467;23;20399;-93
2022/06/30 06:40:56;;;;;;;10.50;9.60;;;24.80;80.60;;;;;;6193399;23;20827;-92
2022/06/30 06:43:22;;;;;;;9.73;8.93;;;24.80;80.70;;;;;;6219403;23;20426;-93
2022/06/30 06:45:48;;;;;;;9.30;8.50;;;24.80;80.80;;;;;;6193474;23;20391;-89
2022/06/30 06:48:14;;;;;;;10.70;9.80;;;24.80;80.80;;;;;;6219370;23;20368;-91
2022/06/30 06:50:42;;;;;;;9.80;9.00;;;24.80;81.10;;;;;;6193229;23;20772;-92
2022/06/30 06:54:18;;;;;;;10.20;9.40;;;24.80;81.10;;;;;;6217844;23;20426;-93
2022/06/30 06:56:44;;;;;;;10.20;9.30;;;24.80;81.00;;;;;;6144115;23;20751;-93
2022/06/30 06:59:10;;;;;;;10.43;9.53;;;24.80;81.20;;;;;;6168705;23;20399;-96
2022/06/30 07:01:36;;;;;;;11.30;10.10;;;24.80;81.40;;;;;;6193224;23;20390;-93
2022/06/30 07:04:02;;;;;;;11.43;9.30;;;24.80;81.60;;;;;;6144002;23;20437;-95
2022/06/30 07:06:28;;;;;;;10.53;9.63;;;24.80;81.60;;;;;;6169045;23;20407;-95
2022/06/30 07:08:54;;;;;;;9.80;8.90;;;24.80;81.50;;;;;;6168353;23;20682;-95
2022/06/30 07:11:21;;;;;;;9.20;8.40;;;24.80;81.50;;;;;;6193523;23;20398;-93
2022/06/30 07:13:47;;;;;;;10.40;8.93;;;24.80;81.30;;;;;;6168442;23;20494;-94
2022/06/30 07:16:13;;;;;;;9.80;9.00;;;24.80;81.20;;;;;;6171103;23;20650;-91
2022/06/30 07:18:39;;;;;;;8.40;7.70;;;24.80;81.10;;;;;;6168173;23;20758;-93
2022/06/30 07:21:07;;;;;;;10.23;9.23;;;24.80;81.10;;;;;;6193786;23;20645;-93
2022/06/30 07:23:33;;;;;;;9.40;8.67;;;24.80;81.20;;;;;;6168397;23;20438;-94
2022/06/30 07:26:02;;;;;;;8.60;7.90;;;24.90;81.10;;;;;;6193507;23;20386;-96
2022/06/30 07:28:28;;;;;;;8.10;7.40;;;24.90;81.10;;;;;;6219329;23;20396;-95
2022/06/30 07:30:55;;;;;;;8.23;7.53;;;24.90;81.10;;;;;;6193219;23;20398;-96
2022/06/30 07:33:23;;;;;;;9.00;8.10;;;24.90;80.90;;;;;;6193271;23;20423;-96
2022/06/30 07:35:51;;;;;;;7.70;6.97;;;24.90;80.90;;;;;;6168404;23;20481;-94
2022/06/30 07:38:20;;;;;;;8.10;7.40;;;24.90;80.80;;;;;;6192803;23;20391;-94
2022/06/30 07:40:46;;;;;;;8.80;8.00;;;24.90;80.70;;;;;;6192679;23;20848;-94
2022/06/30 07:43:15;;;;;;;8.30;7.60;;;24.90;80.70;;;;;;6219072;23;20430;-94
2022/06/30 07:45:52;;;;;;;8.37;7.33;;;24.90;80.80;;;;;;6192837;23;20862;-95
2022/06/30 07:48:19;;;;;;;7.80;7.10;;;25.00;80.80;;;;;;6192577;23;20457;-94
2022/06/30 07:50:45;;;;;;;8.77;7.83;;;25.00;80.80;;;;;;6192798;23;20382;-95
2022/06/30 07:53:23;;;;;;;8.13;7.10;;;25.00;80.80;;;;;;6217994;23;20414;-95
2022/06/30 07:55:49;;;;;;;7.73;6.83;;;25.00;80.70;;;;;;6192905;23;20897;-94
2022/06/30 07:58:15;;;;;;;7.93;7.17;;;25.00;80.80;;;;;;6192886;23;20453;-95
2022/06/30 08:00:41;;;;;;;8.10;7.40;;;25.00;80.70;;;;;;6192726;23;20429;-95
2022/06/30 08:03:07;;;;;;;7.17;6.50;;;25.00;80.80;;;;;;6167627;23;20497;-94
2022/06/30 08:05:33;;;;;;;8.43;7.63;;;25.00;80.80;;;;;;6192709;23;20386;-92
2022/06/30 08:07:59;;;;;;;8.63;7.80;;;25.10;80.90;;;;;;6167580;23;20434;-95
2022/06/30 08:10:25;;;;;;;7.20;6.60;;;25.10;81.00;;;;;;6192538;23;20383;-92
2022/06/30 08:13:17;;;;;;;8.13;7.40;;;25.10;81.00;;;;;;6192841;23;20453;-94
2022/06/30 08:23:53;;;;;;;8.53;7.10;;;25.20;81.10;;;;;;6218444;23;20426;-94
2022/06/30 08:26:21;;;;;;;7.50;6.80;;;25.20;81.10;;;;;;6217539;23;20393;-95
2022/06/30 08:28:48;;;;;;;6.60;5.90;;;25.20;81.10;;;;;;6217157;23;21005;-96
2022/06/30 08:31:15;;;;;;;7.53;6.93;;;25.20;81.00;;;;;;6218163;23;20369;-94
2022/06/30 08:33:41;;;;;;;8.70;6.90;;;25.20;81.00;;;;;;6192380;23;20379;-94
2022/06/30 08:36:08;;;;;;;7.03;6.33;;;25.30;81.00;;;;;;6191316;23;20398;-95
2022/06/30 08:46:51;;;;;;;6.60;6.00;;;25.30;80.60;;;;;;6141936;23;20916;-96
2022/06/30 08:49:42;;;;;;;7.00;6.40;;;25.40;80.50;;;;;;6102503;23;20393;-94
2022/06/30 08:52:10;;;;;;;6.60;5.70;;;25.40;80.30;;;;;;6140846;23;20833;-94
2022/06/30 08:54:38;;;;;;;5.70;5.20;;;25.40;80.30;;;;;;6191512;23;20405;-95
2022/06/30 08:57:08;;;;;;;5.23;4.77;;;25.40;80.10;;;;;;6167993;23;20437;-94
2022/06/30 08:59:35;;;;;;;6.33;5.73;;;25.40;80.00;;;;;;6192849;23;20387;-95
2022/06/30 09:02:01;;;;;;;6.30;5.67;;;25.50;79.90;;;;;;6192233;23;20692;-94
2022/06/30 09:04:27;;;;;;;5.13;4.73;;;25.50;79.60;;;;;;6192604;23;20458;-95
2022/06/30 09:06:58;;;;;;;5.40;5.00;;;25.50;79.40;;;;;;6192895;23;20382;-95
2022/06/30 09:09:24;;;;;;;6.27;5.67;;;25.60;79.30;;;;;;6192367;23;20732;-95
2022/06/30 09:11:59;;;;;;;5.70;5.20;;;25.60;79.20;;;;;;6192207;23;20395;-94
2022/06/30 09:14:40;;;;;;;8.10;5.43;;;25.60;79.20;;;;;;6167550;23;20403;-95
2022/06/30 09:17:09;;;;;;;9.43;5.10;;;25.70;79.20;;;;;;6167320;23;20430;-96
2022/06/30 09:19:40;;;;;;;7.43;6.10;;;25.70;79.10;;;;;;6168002;23;20399;-96
2022/06/30 09:22:17;;;;;;;7.10;5.63;;;25.80;79.10;;;;;;6192132;23;20411;-94
2022/06/30 09:24:43;;;;;;;5.03;4.00;;;25.80;78.90;;;;;;6168065;23;20402;-94
2022/06/30 09:27:19;;;;;;;5.03;4.60;;;25.80;78.80;;;;;;6192771;23;20497;-95
2022/06/30 09:29:56;;;;;;;7.30;5.20;;;25.80;78.60;;;;;;6168977;23;20378;-96
2022/06/30 09:32:29;;;;;;;4.83;4.43;;;25.90;78.60;;;;;;6168474;23;20392;-96
2022/06/30 09:35:11;;;;;;;4.83;4.27;;;25.90;78.40;;;;;;6196689;23;20732;-96
2022/06/30 09:37:37;;;;;;;4.13;3.80;;;26.00;78.60;;;;;;6193293;23;20399;-95
2022/06/30 09:43:39;;;;;;;5.30;3.83;;;26.10;78.60;;;;;;6195740;23;20452;-96
2022/06/30 09:46:08;;;;;;;5.20;4.73;;;26.10;78.50;;;;;;6169616;23;20395;-95
2022/06/30 09:48:41;;;;;;;4.47;4.07;;;26.10;78.50;;;;;;6194310;23;20840;-96
2022/06/30 09:51:17;;;;;;;4.50;4.10;;;26.20;78.60;;;;;;6171275;23;20737;-95
2022/06/30 09:54:07;;;;;;;4.53;4.13;;;26.20;78.50;;;;;;6169348;23;21030;-94
2022/06/30 09:56:33;;;;;;;4.80;4.10;;;26.30;78.60;;;;;;6190615;23;20426;-94
2022/06/30 09:58:59;;;;;;;4.90;4.40;;;26.30;78.50;;;;;;6219228;23;20426;-94
2022/06/30 10:01:28;;;;;;;4.90;4.40;;;26.40;78.50;;;;;;6169603;23;20850;-92
2022/06/30 10:04:03;;;;;;;5.80;4.73;;;26.40;78.40;;;;;;6193759;23;20432;-96
2022/06/30 10:06:32;;;;;;;5.80;4.40;;;26.40;78.40;;;;;;6169923;23;20383;-96
2022/06/30 10:08:59;;;;;;;5.07;4.50;;;26.40;78.40;;;;;;6169099;23;20431;-91
2022/06/30 10:11:25;;;;;;;4.07;3.67;;;26.50;78.40;;;;;;6220339;23;20395;-91
2022/06/30 10:13:52;;;;;;;4.73;4.33;;;26.60;78.30;;;;;;6194679;23;20426;-92
2022/06/30 10:16:21;;;;;;;5.03;4.60;;;26.60;78.10;;;;;;6193886;23;20522;-92
2022/06/30 10:18:50;;;;;;;4.60;4.20;;;26.60;78.80;;;;;;6169773;23;20383;-93
2022/06/30 10:21:20;;;;;;;5.30;4.67;;;26.70;77.90;;;;;;6219182;23;20485;-91
2022/06/30 10:23:49;;;;;;;4.43;4.03;;;26.70;77.80;;;;;;6194215;23;20451;-92
2022/06/30 10:29:04;;;;;;;5.03;4.60;;;26.80;77.70;;;;;;6220032;23;20806;-90
2022/06/30 10:31:38;;;;;;;4.73;4.27;;;26.80;77.50;;;;;;6219021;23;20391;-92
2022/06/30 10:34:19;;;;;;;5.13;4.17;;;26.80;77.30;;;;;;6169628;23;20391;-91
2022/06/30 10:36:50;;;;;;;8.03;4.63;;;26.90;77.30;;;;;;6194786;23;20403;-92
2022/06/30 10:39:26;;;;;;;4.97;4.47;;;27.00;77.20;;;;;;6195049;23;20395;-92
2022/06/30 10:41:52;;;;;;;4.10;3.80;;;27.00;77.00;;;;;;6194331;23;20367;-91
2022/06/30 10:44:23;;;;;;;4.63;4.00;;;27.00;76.90;;;;;;6218601;23;20792;-92
2022/06/30 10:46:51;;;;;;;4.70;4.23;;;27.00;76.80;;;;;;6219139;23;20175;-88
2022/06/30 10:49:17;;;;;;;4.90;4.03;;;27.10;76.80;;;;;;6218136;23;20426;-88
2022/06/30 10:51:45;;;;;;;4.30;3.90;;;27.10;76.70;;;;;;6218149;23;20387;-89
2022/06/30 10:54:30;;;;;;;5.77;4.50;;;27.20;76.60;;;;;;6168681;23;20729;-89
2022/06/30 10:56:58;;;;;;;5.20;4.33;;;27.20;76.50;;;;;;6193860;23;20407;-88
2022/06/30 10:59:27;;;;;;;4.87;4.40;;;27.20;76.30;;;;;;6193388;23;20371;-88
2022/06/30 11:02:10;;;;;;;4.20;3.90;;;27.30;76.20;;;;;;6168467;23;20835;-90
2022/06/30 11:04:47;;;;;;;4.40;3.90;;;27.30;76.30;;;;;;6192921;23;20405;-88
2022/06/30 11:07:20;;;;;;;4.60;4.20;;;27.30;76.20;;;;;;6218929;23;20434;-90
2022/06/30 11:09:49;;;;;;;6.83;4.60;;;27.40;76.20;;;;;;6218133;23;20395;-89
2022/06/30 11:12:17;;;;;;;4.50;4.10;;;27.40;76.10;;;;;;6192886;23;20415;-92
2022/06/30 11:14:54;;;;;;;3.83;3.53;;;27.50;76.10;;;;;;6193419;23;20391;-90
2022/06/30 11:17:22;;;;;;;6.27;4.00;;;27.50;76.10;;;;;;6193172;23;20402;-90
2022/06/30 11:19:58;;;;;;;6.07;3.90;;;27.50;75.90;;;;;;6193313;23;20399;-90
2022/06/30 11:22:27;;;;;;;4.50;4.10;;;27.50;75.90;;;;;;6169251;23;20437;-91
2022/06/30 11:24:57;;;;;;;4.67;4.20;;;27.60;75.90;;;;;;6193223;23;20392;-91
2022/06/30 11:27:25;;;;;;;5.63;4.07;;;27.60;75.90;;;;;;6193103;23;20371;-91
2022/06/30 11:30:02;;;;;;;6.10;4.10;;;27.60;75.80;;;;;;6168735;23;20449;-91
2022/06/30 11:32:30;;;;;;;3.90;3.60;;;27.70;75.70;;;;;;6218372;23;20426;-91
2022/06/30 11:34:57;;;;;;;4.50;4.07;;;27.70;75.60;;;;;;6219401;23;20415;-90
2022/06/30 11:37:25;;;;;;;4.33;3.93;;;27.70;75.70;;;;;;6218540;23;20394;-91
2022/06/30 11:40:04;;;;;;;4.60;4.30;;;27.80;75.70;;;;;;6168019;23;20422;-88
2022/06/30 11:42:31;;;;;;;5.20;4.30;;;27.80;75.60;;;;;;6168214;23;20426;-91
2022/06/30 11:44:57;;;;;;;6.37;4.53;;;27.80;75.50;;;;;;6193193;23;20470;-90
2022/06/30 11:47:28;;;;;;;5.43;4.60;;;27.90;75.50;;;;;;6193071;23;20399;-91
2022/06/30 11:49:58;;;;;;;4.30;3.87;;;27.90;75.60;;;;;;6167985;23;20822;-93
2022/06/30 11:52:34;;;;;;;6.27;4.77;;;27.90;75.60;;;;;;6193152;23;20427;-90
2022/06/30 11:55:10;;;;;;;6.00;4.70;;;27.90;75.60;;;;;;6168353;23;20546;-90
2022/06/30 11:57:40;;;;;;;5.07;4.53;;;28.00;75.70;;;;;;6192887;23;20401;-92
2022/06/30 12:00:09;;;;;;;4.60;4.20;;;28.00;75.60;;;;;;6192460;23;20439;-91
2022/06/30 12:02:37;;;;;;;4.37;3.97;;;28.00;75.50;;;;;;6192581;23;20431;-91
2022/06/30 12:05:04;;;;;;;5.00;4.60;;;28.10;75.50;;;;;;6192604;23;20379;-91
2022/06/30 12:07:32;;;;;;;6.17;5.10;;;28.10;76.30;;;;;;6167553;23;20469;-92
2022/06/30 12:10:00;;;;;;;4.50;4.13;;;28.10;75.50;;;;;;6168381;23;20376;-91
2022/06/30 12:15:23;;;;;;;6.87;5.00;;;28.20;75.50;;;;;;6193344;23;20383;-91
2022/06/30 12:17:56;;;;;;;6.00;4.10;;;28.20;75.50;;;;;;6218311;23;20383;-91
2022/06/30 12:20:26;;;;;;;5.30;4.90;;;28.20;75.40;;;;;;6217658;23;20474;-92
2022/06/30 12:22:55;;;;;;;6.30;5.70;;;28.20;75.30;;;;;;6167873;23;20438;-90
2022/06/30 12:25:21;;;;;;;5.33;4.90;;;28.20;75.30;;;;;;6216779;23;20403;-92
2022/06/30 12:27:53;;;;;;;4.83;4.43;;;28.30;75.40;;;;;;6192319;23;20461;-89
2022/06/30 12:30:35;;;;;;;5.67;5.07;;;28.30;75.40;;;;;;6216990;23;20684;-90
2022/06/30 12:33:06;;;;;;;16.40;5.70;;;28.30;75.40;;;;;;6218061;23;20434;-90
2022/06/30 12:35:33;;;;;;;5.70;5.20;;;28.40;75.30;;;;;;6167362;23;20379;-89
2022/06/30 12:38:30;;;;;;;5.27;4.80;;;28.40;75.20;;;;;;6191770;23;20399;-90
2022/06/30 12:40:56;;;;;;;5.20;4.53;;;28.40;75.00;;;;;;6188945;23;20465;-89
2022/06/30 12:43:22;;;;;;;5.40;4.40;;;28.50;74.80;;;;;;6191835;23;20423;-91
2022/06/30 12:45:58;;;;;;;4.80;4.40;;;28.50;74.70;;;;;;6218511;23;20274;-90
2022/06/30 12:48:54;;;;;;;4.77;4.23;;;28.50;74.80;;;;;;6192806;23;20419;-91
2022/06/30 12:51:32;;;;;;;5.83;5.10;;;28.50;74.60;;;;;;6192888;23;20399;-92
2022/06/30 12:54:10;;;;;;;5.07;4.13;;;28.60;74.60;;;;;;6192205;23;20458;-91
2022/06/30 12:56:37;;;;;;;6.30;4.57;;;28.60;74.60;;;;;;6217478;23;20689;-90
2022/06/30 12:59:08;;;;;;;5.37;4.87;;;28.60;74.60;;;;;;6217495;23;20474;-91
2022/06/30 13:01:41;;;;;;;5.03;4.27;;;28.70;74.60;;;;;;6191942;23;20473;-90
2022/06/30 13:04:22;;;;;;;5.50;5.00;;;28.70;74.40;;;;;;6191999;23;20525;-90
2022/06/30 13:06:50;;;;;;;4.80;4.40;;;28.70;74.30;;;;;;6192669;23;20376;-91
2022/06/30 13:09:22;;;;;;;5.80;4.20;;;28.80;74.40;;;;;;6217144;23;20388;-91
2022/06/30 13:11:54;;;;;;;5.10;4.60;;;28.80;74.20;;;;;;6219096;23;20368;-91
2022/06/30 13:14:26;;;;;;;4.60;4.20;;;28.80;74.10;;;;;;6219454;23;20378;-91
2022/06/30 13:16:52;;;;;;;5.00;4.60;;;28.80;73.80;;;;;;6219311;23;20387;-91
2022/06/30 13:19:18;;;;;;;4.50;4.00;;;28.90;73.70;;;;;;6194129;23;20406;-91
2022/06/30 13:21:50;;;;;;;4.83;4.50;;;28.90;73.40;;;;;;6194764;23;20379;-90
2022/06/30 13:24:20;;;;;;;4.13;3.67;;;29.00;73.40;;;;;;6194220;23;20411;-91
2022/06/30 13:26:47;;;;;;;4.57;4.17;;;29.00;73.30;;;;;;6168822;23;20391;-92
2022/06/30 13:29:16;;;;;;;6.23;4.57;;;29.00;73.20;;;;;;6169361;23;20411;-92
2022/06/30 13:31:43;;;;;;;5.17;4.43;;;29.00;73.10;;;;;;6194272;23;20418;-92